createdAt,value
2019-03-17T00:01:21.907Z,5.80
2019-03-17T00:04:02.790Z,5.70
2019-03-17T00:06:43.653Z,5.60
2019-03-17T00:09:27.318Z,5.50
2019-03-17T00:12:08.026Z,5.50
2019-03-17T00:14:48.724Z,5.50
2019-03-17T00:17:29.444Z,5.50
2019-03-17T00:20:10.533Z,5.50
2019-03-17T00:22:51.445Z,5.40
2019-03-17T00:25:32.273Z,5.30
2019-03-17T00:28:13.320Z,5.20
2019-03-17T00:30:54.037Z,5.20
2019-03-17T00:33:36.523Z,5.20
2019-03-17T00:36:17.530Z,5.20
2019-03-17T00:38:58.482Z,5.10
2019-03-17T00:41:39.431Z,5.00
2019-03-17T00:44:20.234Z,5.00
2019-03-17T00:47:01.261Z,5.00
2019-03-17T00:49:42.250Z,5.00
2019-03-17T00:52:23.226Z,5.00
2019-03-17T00:55:04.460Z,4.90
2019-03-17T00:57:45.240Z,5.00
2019-03-17T01:00:26.131Z,4.90
2019-03-17T01:03:06.986Z,4.80
2019-03-17T01:05:48.070Z,4.70
2019-03-17T01:08:28.858Z,4.70
2019-03-17T01:11:09.703Z,4.70
2019-03-17T01:13:50.569Z,4.70
2019-03-17T01:16:31.388Z,4.60
2019-03-17T01:19:12.321Z,4.60
2019-03-17T01:21:53.218Z,4.70
2019-03-17T01:24:34.033Z,4.70
2019-03-17T01:27:14.723Z,4.70
2019-03-17T01:29:57.478Z,4.60
2019-03-17T01:32:38.417Z,4.60
2019-03-17T01:35:19.081Z,4.50
2019-03-17T01:38:00.493Z,4.40
2019-03-17T01:45:58.938Z,4.60
2019-03-17T01:48:39.543Z,4.50
2019-03-17T01:51:20.194Z,4.50
2019-03-17T01:54:01.928Z,4.50
2019-03-17T01:56:42.906Z,4.50
2019-03-17T01:59:23.658Z,4.40
2019-03-17T02:02:04.640Z,4.40
2019-03-17T02:04:45.282Z,4.40
2019-03-17T02:07:26.084Z,4.40
2019-03-17T02:10:06.495Z,4.40
2019-03-17T02:12:47.948Z,4.30
2019-03-17T02:15:20.830Z,4.40
2019-03-17T02:18:09.042Z,4.40
2019-03-17T02:20:49.735Z,4.30
2019-03-17T02:23:30.670Z,4.20
2019-03-17T02:26:11.511Z,4.20
2019-03-17T02:28:52.363Z,4.20
2019-03-17T02:31:33.244Z,4.20
2019-03-17T02:36:56.763Z,4.20
2019-03-17T02:39:38.028Z,4.10
2019-03-17T02:42:18.934Z,4.10
2019-03-17T02:44:59.873Z,4.20
2019-03-17T02:47:40.643Z,4.30
2019-03-17T02:50:21.567Z,4.10
2019-03-17T02:53:02.778Z,4.10
2019-03-17T02:55:43.774Z,4.10
2019-03-17T02:58:24.223Z,4.10
2019-03-17T03:01:05.034Z,4.00
2019-03-17T03:03:46.022Z,4.00
2019-03-17T03:06:27.016Z,4.10
2019-03-17T03:09:07.935Z,4.10
2019-03-17T03:11:48.869Z,4.10
2019-03-17T03:14:17.910Z,4.00
2019-03-17T03:17:06.096Z,3.90
2019-03-17T03:19:46.803Z,3.90
2019-03-17T03:22:28.094Z,3.90
2019-03-17T03:25:09.074Z,3.90
2019-03-17T03:27:49.591Z,3.80
2019-03-17T03:30:30.326Z,3.80
2019-03-17T03:33:10.967Z,3.70
2019-03-17T03:35:52.109Z,3.60
2019-03-17T03:38:33.169Z,3.70
2019-03-17T03:41:14.248Z,3.80
2019-03-17T03:43:55.064Z,3.70
2019-03-17T03:46:36.322Z,3.70
2019-03-17T03:49:17.319Z,3.70
2019-03-17T03:51:57.683Z,3.70
2019-03-17T03:54:38.365Z,3.70
2019-03-17T03:57:19.453Z,3.70
2019-03-17T04:00:00.455Z,3.80
2019-03-17T04:02:41.590Z,3.70
2019-03-17T04:05:22.386Z,3.60
2019-03-17T04:08:03.482Z,3.60
2019-03-17T04:10:44.322Z,3.50
2019-03-17T04:13:24.993Z,3.60
2019-03-17T04:16:06.098Z,3.70
2019-03-17T04:18:46.957Z,3.80
2019-03-17T04:21:27.718Z,3.70
2019-03-17T04:24:08.193Z,3.60
2019-03-17T04:26:48.882Z,3.50
2019-03-17T04:29:29.623Z,3.50
2019-03-17T04:32:10.731Z,3.50
2019-03-17T04:34:51.498Z,3.50
2019-03-17T04:37:32.438Z,3.50
2019-03-17T04:40:12.882Z,3.40
2019-03-17T04:42:53.854Z,3.40
2019-03-17T04:45:34.718Z,3.40
2019-03-17T04:48:15.761Z,3.50
2019-03-17T04:50:56.497Z,3.50
2019-03-17T04:53:37.608Z,3.50
2019-03-17T04:56:18.333Z,3.60
2019-03-17T04:58:59.157Z,3.60
2019-03-17T05:01:39.884Z,3.50
2019-03-17T05:04:20.725Z,3.40
2019-03-17T05:07:01.459Z,3.30
2019-03-17T05:09:42.514Z,3.30
2019-03-17T05:12:23.645Z,3.30
2019-03-17T05:15:04.046Z,3.20
2019-03-17T05:17:44.821Z,3.20
2019-03-17T05:20:25.746Z,3.20
2019-03-17T05:23:06.513Z,3.20
2019-03-17T05:25:47.826Z,3.10
2019-03-17T05:28:29.151Z,3.10
2019-03-17T05:31:09.672Z,3.20
2019-03-17T05:33:50.764Z,3.10
2019-03-17T05:36:31.569Z,3.00
2019-03-17T05:39:12.420Z,3.00
2019-03-17T05:41:53.082Z,3.20
2019-03-17T05:44:33.955Z,3.30
2019-03-17T05:47:14.591Z,3.30
2019-03-17T05:49:55.601Z,3.30
2019-03-17T05:52:36.472Z,3.30
2019-03-17T05:55:17.418Z,3.30
2019-03-17T05:57:58.185Z,3.20
2019-03-17T06:00:39.210Z,3.40
2019-03-17T06:03:19.942Z,3.50
2019-03-17T06:06:00.806Z,3.60
2019-03-17T06:08:41.668Z,3.50
2019-03-17T06:11:22.585Z,3.50
2019-03-17T06:14:03.301Z,3.60
2019-03-17T06:16:43.986Z,3.70
2019-03-17T06:19:24.902Z,3.80
2019-03-17T06:22:05.835Z,3.70
2019-03-17T06:24:46.681Z,3.70
2019-03-17T06:27:27.480Z,3.70
2019-03-17T06:30:08.475Z,3.70
2019-03-17T06:32:49.724Z,3.70
2019-03-17T06:35:30.508Z,3.80
2019-03-17T06:38:11.251Z,3.80
2019-03-17T06:40:52.251Z,3.70
2019-03-17T06:43:33.607Z,3.60
2019-03-17T06:46:14.312Z,3.60
2019-03-17T06:48:55.323Z,3.60
2019-03-17T06:51:35.825Z,3.60
2019-03-17T06:54:17.204Z,3.80
2019-03-17T06:56:58.277Z,3.90
2019-03-17T06:59:39.266Z,4.30
2019-03-17T07:02:19.968Z,4.70
2019-03-17T07:05:00.674Z,5.00
2019-03-17T07:07:44.232Z,5.30
2019-03-17T07:10:24.493Z,5.50
2019-03-17T07:13:05.397Z,5.70
2019-03-17T07:15:34.476Z,5.90
2019-03-17T07:18:22.657Z,6.10
2019-03-17T07:21:03.575Z,6.20
2019-03-17T07:23:43.945Z,6.60
2019-03-17T07:26:24.657Z,6.80
2019-03-17T07:29:05.197Z,6.90
2019-03-17T07:31:46.284Z,7.10
2019-03-17T07:34:27.104Z,7.30
2019-03-17T07:37:07.858Z,7.50
2019-03-17T07:39:49.063Z,7.60
2019-03-17T07:42:32.467Z,7.70
2019-03-17T07:45:00.844Z,8.00
2019-03-17T07:50:49.788Z,8.20
2019-03-17T07:53:30.452Z,8.20
2019-03-17T07:56:11.359Z,8.40
2019-03-17T07:58:52.412Z,8.50
2019-03-17T08:01:33.220Z,8.50
2019-03-17T08:04:14.096Z,8.70
2019-03-17T08:06:54.790Z,8.90
2019-03-17T08:09:35.884Z,9.10
2019-03-17T08:12:16.711Z,9.20
2019-03-17T08:14:57.953Z,9.50
2019-03-17T08:17:39.247Z,9.60
2019-03-17T08:20:19.985Z,9.80
2019-03-17T08:23:00.900Z,10.10
2019-03-17T08:25:41.817Z,10.40
2019-03-17T08:28:22.995Z,10.50
2019-03-17T08:31:03.805Z,10.60
2019-03-17T08:33:44.746Z,10.90
2019-03-17T08:39:05.032Z,11.40
2019-03-17T08:41:46.133Z,11.70
2019-03-17T08:44:26.760Z,11.80
2019-03-17T08:47:07.828Z,12.00
2019-03-17T08:49:48.792Z,12.20
2019-03-17T08:52:29.569Z,12.40
2019-03-17T08:55:10.285Z,12.30
2019-03-17T08:57:51.267Z,12.40
2019-03-17T09:00:32.268Z,12.70
2019-03-17T09:03:13.564Z,12.80
2019-03-17T09:05:54.026Z,13.00
2019-03-17T09:08:35.629Z,13.20
2019-03-17T09:11:16.468Z,13.20
2019-03-17T09:13:56.938Z,13.10
2019-03-17T09:16:37.981Z,13.00
2019-03-17T09:19:07.038Z,12.70
2019-03-17T09:21:48.305Z,12.80
2019-03-17T09:24:28.939Z,12.90
2019-03-17T09:27:09.406Z,12.90
2019-03-17T09:29:50.032Z,13.00
2019-03-17T09:32:30.782Z,13.10
2019-03-17T09:35:11.569Z,13.00
2019-03-17T09:37:52.965Z,13.00
2019-03-17T09:40:33.830Z,13.00
2019-03-17T09:43:14.703Z,13.00
2019-03-17T09:45:55.618Z,13.00
2019-03-17T09:48:36.660Z,13.20
2019-03-17T09:51:17.382Z,13.50
2019-03-17T09:53:58.190Z,13.70
2019-03-17T09:56:39.009Z,14.00
2019-03-17T09:59:19.899Z,14.10
2019-03-17T10:02:01.173Z,14.20
2019-03-17T10:04:30.262Z,14.30
2019-03-17T10:07:18.428Z,14.50
2019-03-17T10:09:59.054Z,14.70
2019-03-17T10:12:39.682Z,14.70
2019-03-17T10:15:20.314Z,15.00
2019-03-17T10:18:01.090Z,15.20
2019-03-17T10:20:43.127Z,15.40
2019-03-17T10:23:24.462Z,15.60
2019-03-17T10:26:05.209Z,15.80
2019-03-17T10:28:46.174Z,16.00
2019-03-17T10:31:26.881Z,16.10
2019-03-17T10:33:55.947Z,16.30
2019-03-17T10:36:44.044Z,16.70
2019-03-17T10:39:32.226Z,16.90
2019-03-17T10:42:12.552Z,17.20
2019-03-17T10:44:52.913Z,17.50
2019-03-17T10:47:33.440Z,17.60
2019-03-17T10:50:14.333Z,17.70
2019-03-17T10:52:55.076Z,17.70
2019-03-17T10:55:35.765Z,17.80
2019-03-17T10:58:16.777Z,17.90
2019-03-17T11:03:36.932Z,18.00
2019-03-17T11:06:17.612Z,18.10
2019-03-17T11:08:58.240Z,18.10
2019-03-17T11:11:38.885Z,18.10
2019-03-17T11:14:20.058Z,18.10
2019-03-17T11:17:01.138Z,18.10
2019-03-17T11:19:42.008Z,18.20
2019-03-17T11:22:22.813Z,18.10
2019-03-17T11:25:03.736Z,18.00
2019-03-17T11:27:44.832Z,18.00
2019-03-17T11:30:25.445Z,18.00
2019-03-17T11:33:05.875Z,18.10
2019-03-17T11:35:46.217Z,18.10
2019-03-17T11:38:26.685Z,18.10
2019-03-17T11:41:07.206Z,18.20
2019-03-17T11:43:48.491Z,18.10
2019-03-17T11:46:29.588Z,18.10
2019-03-17T11:49:10.691Z,18.00
2019-03-17T11:51:51.761Z,18.10
2019-03-17T11:54:32.617Z,18.20
2019-03-17T11:57:13.027Z,18.30
2019-03-17T11:59:53.994Z,18.40
2019-03-17T12:02:34.842Z,18.40
2019-03-17T12:05:15.826Z,18.50
2019-03-17T12:07:57.289Z,18.50
2019-03-17T12:10:37.973Z,18.60
2019-03-17T12:13:18.446Z,18.80
2019-03-17T12:15:47.504Z,18.80
2019-03-17T12:18:35.753Z,18.90
2019-03-17T12:21:24.012Z,18.90
2019-03-17T12:24:04.567Z,18.90
2019-03-17T12:26:49.671Z,18.90
2019-03-17T12:29:30.107Z,19.00
2019-03-17T12:32:10.926Z,19.00
2019-03-17T12:34:51.745Z,19.20
2019-03-17T12:37:34.199Z,19.20
2019-03-17T12:40:14.731Z,19.20
2019-03-17T12:42:55.884Z,19.20
2019-03-17T12:45:36.735Z,19.00
2019-03-17T12:48:17.521Z,18.90
2019-03-17T12:50:58.481Z,19.10
2019-03-17T12:53:39.203Z,19.20
2019-03-17T12:56:19.923Z,19.10
2019-03-17T12:59:00.789Z,19.00
2019-03-17T13:01:41.603Z,18.80
2019-03-17T13:04:22.089Z,18.70
2019-03-17T13:07:02.653Z,18.70
2019-03-17T13:09:43.610Z,18.70
2019-03-17T13:12:24.676Z,18.70
2019-03-17T13:15:05.986Z,18.90
2019-03-17T13:17:35.060Z,18.60
2019-03-17T13:20:23.226Z,18.50
2019-03-17T13:23:03.932Z,18.60
2019-03-17T13:25:44.916Z,18.50
2019-03-17T13:28:25.837Z,18.50
2019-03-17T13:31:06.905Z,18.40
2019-03-17T13:33:47.959Z,18.40
2019-03-17T13:36:28.560Z,18.50
2019-03-17T13:39:09.199Z,18.50
2019-03-17T13:41:49.835Z,18.50
2019-03-17T13:44:31.024Z,18.30
2019-03-17T13:47:11.909Z,18.30
2019-03-17T13:49:52.683Z,18.20
2019-03-17T13:52:33.568Z,18.10
2019-03-17T13:55:14.232Z,18.00
2019-03-17T13:57:55.457Z,17.90
2019-03-17T14:00:36.127Z,17.80
2019-03-17T14:03:17.029Z,17.70
2019-03-17T14:05:57.755Z,17.70
2019-03-17T14:08:38.381Z,17.70
2019-03-17T14:11:19.240Z,17.70
2019-03-17T14:14:00.016Z,17.60
2019-03-17T14:16:41.050Z,17.50
2019-03-17T14:19:21.897Z,17.30
2019-03-17T14:22:02.652Z,17.20
2019-03-17T14:24:31.714Z,17.10
2019-03-17T14:27:19.883Z,17.00
2019-03-17T14:33:08.687Z,16.90
2019-03-17T14:35:49.155Z,16.80
2019-03-17T14:38:30.296Z,16.70
2019-03-17T14:41:11.600Z,16.60
2019-03-17T14:43:52.421Z,16.60
2019-03-17T14:46:35.598Z,16.60
2019-03-17T14:49:16.250Z,16.60
2019-03-17T14:51:57.139Z,16.60
2019-03-17T14:54:41.623Z,16.50
2019-03-17T14:57:22.352Z,16.30
2019-03-17T15:00:03.020Z,16.10
2019-03-17T15:02:43.927Z,15.90
2019-03-17T15:05:25.385Z,15.70
2019-03-17T15:08:06.837Z,15.40
2019-03-17T15:11:05.286Z,15.20
2019-03-17T15:13:36.863Z,15.00
2019-03-17T15:16:17.348Z,14.80
2019-03-17T15:18:58.094Z,14.50
2019-03-17T15:21:38.775Z,14.40
2019-03-17T15:24:19.644Z,14.30
2019-03-17T15:27:00.558Z,14.20
2019-03-17T15:29:41.378Z,14.10
2019-03-17T15:32:22.429Z,14.10
2019-03-17T15:35:03.171Z,14.10
2019-03-17T15:37:44.206Z,14.10
2019-03-17T15:40:25.524Z,14.00
2019-03-17T15:43:06.213Z,13.90
2019-03-17T15:45:46.636Z,13.80
2019-03-17T15:48:27.440Z,13.70
2019-03-17T15:51:19.572Z,13.70
2019-03-17T15:53:51.150Z,13.60
2019-03-17T15:56:32.073Z,13.50
2019-03-17T15:59:12.940Z,13.40
2019-03-17T16:01:53.395Z,13.30
2019-03-17T16:04:34.132Z,13.10
2019-03-17T16:07:15.363Z,13.00
2019-03-17T16:09:44.365Z,12.90
2019-03-17T16:17:50.707Z,12.30
2019-03-17T16:20:31.404Z,12.00
2019-03-17T16:23:12.299Z,11.80
2019-03-17T16:25:53.331Z,11.40
2019-03-17T16:28:34.079Z,11.10
2019-03-17T16:31:14.841Z,10.90
2019-03-17T16:33:55.546Z,10.80
2019-03-17T16:36:36.582Z,10.60
2019-03-17T16:39:17.542Z,10.50
2019-03-17T16:41:58.530Z,10.20
2019-03-17T16:44:39.467Z,9.90
2019-03-17T16:47:20.067Z,9.30
2019-03-17T16:50:01.099Z,8.50
2019-03-17T16:52:42.246Z,8.20
2019-03-17T16:55:23.265Z,7.80
2019-03-17T16:58:03.753Z,7.60
2019-03-17T17:00:49.084Z,7.50
2019-03-17T17:03:29.535Z,7.30
2019-03-17T17:06:10.298Z,7.10
2019-03-17T17:08:51.082Z,7.00
2019-03-17T17:11:31.804Z,6.90
2019-03-17T17:14:12.386Z,6.70
2019-03-17T17:16:53.302Z,6.60
2019-03-17T17:19:34.729Z,6.50
2019-03-17T17:22:15.925Z,6.40
2019-03-17T17:24:56.866Z,6.30
2019-03-17T17:27:37.411Z,6.20
2019-03-17T17:30:18.193Z,6.20
2019-03-17T17:32:58.868Z,6.20
2019-03-17T17:35:40.165Z,6.20
2019-03-17T17:38:23.932Z,6.20
2019-03-17T17:41:05.285Z,6.10
2019-03-17T17:43:46.361Z,6.00
2019-03-17T17:46:27.174Z,6.00
2019-03-17T17:49:07.951Z,6.10
2019-03-17T17:51:49.199Z,6.10
2019-03-17T17:54:30.121Z,6.20
2019-03-17T17:57:10.680Z,6.20
2019-03-17T17:59:51.982Z,6.20
2019-03-17T18:02:32.863Z,6.20
2019-03-17T18:05:13.953Z,6.20
2019-03-17T18:07:54.714Z,6.20
2019-03-17T18:10:35.419Z,6.20
2019-03-17T18:13:16.320Z,6.20
2019-03-17T18:15:57.198Z,6.10
2019-03-17T18:18:38.316Z,6.00
2019-03-17T18:24:03.028Z,5.90
2019-03-17T18:26:44.339Z,5.90
2019-03-17T18:29:25.385Z,5.80
2019-03-17T18:34:50.862Z,5.80
2019-03-17T18:37:32.185Z,5.70
2019-03-17T18:40:13.853Z,5.70
2019-03-17T18:48:15.949Z,5.80
2019-03-17T18:50:59.862Z,5.60
2019-03-17T18:53:42.097Z,5.60
2019-03-17T18:56:23.161Z,5.70
2019-03-17T18:59:07.442Z,5.70
2019-03-17T19:04:32.292Z,5.60
2019-03-17T19:07:13.239Z,5.80
2019-03-17T19:09:53.795Z,5.70
2019-03-17T19:12:44.633Z,5.60
2019-03-17T19:15:15.836Z,5.70
2019-03-17T19:17:57.175Z,5.70
2019-03-17T19:20:38.054Z,5.60
2019-03-17T19:23:19.341Z,5.70
2019-03-17T19:26:00.749Z,5.60
2019-03-17T19:28:41.436Z,5.50
2019-03-17T19:31:22.366Z,5.50
2019-03-17T19:34:03.062Z,5.50
2019-03-17T19:36:44.197Z,5.80
2019-03-17T19:39:25.051Z,6.00
2019-03-17T19:42:05.829Z,6.00
2019-03-17T19:44:49.705Z,6.10
2019-03-17T19:50:16.635Z,6.10
2019-03-17T19:52:57.606Z,5.90
2019-03-17T19:55:38.495Z,5.80
2019-03-17T19:58:21.220Z,5.60
2019-03-17T20:00:50.304Z,5.50
2019-03-17T20:03:38.469Z,5.60
2019-03-17T20:06:19.574Z,5.50
2019-03-17T20:09:00.577Z,5.50
2019-03-17T20:14:25.411Z,5.40
2019-03-17T20:16:54.485Z,5.40
2019-03-17T20:19:42.662Z,5.30
2019-03-17T20:22:30.913Z,5.30
2019-03-17T20:25:19.185Z,5.30
2019-03-17T20:30:42.096Z,5.30
2019-03-17T20:33:23.429Z,5.30
2019-03-17T20:36:04.776Z,5.30
2019-03-17T20:38:45.589Z,5.30
2019-03-17T20:41:27.002Z,5.30
2019-03-17T20:44:07.900Z,5.40
2019-03-17T20:46:48.538Z,5.40
2019-03-17T20:49:31.324Z,5.40
2019-03-17T20:52:12.406Z,5.40
2019-03-17T20:54:53.620Z,5.30
2019-03-17T20:57:34.014Z,5.30
2019-03-17T21:00:15.000Z,5.40
2019-03-17T21:02:56.050Z,5.20
2019-03-17T21:05:37.127Z,4.80
2019-03-17T21:08:18.024Z,4.40
2019-03-17T21:11:02.089Z,4.20
2019-03-17T21:13:46.967Z,4.00
2019-03-17T21:16:25.653Z,4.00
2019-03-17T21:19:07.105Z,4.00
2019-03-17T21:21:36.235Z,3.90
2019-03-17T21:24:24.415Z,3.90
2019-03-17T21:27:05.054Z,3.90
2019-03-17T21:29:45.537Z,3.90
2019-03-17T21:32:30.411Z,3.90
2019-03-17T21:35:11.081Z,3.80
2019-03-17T21:37:51.864Z,3.80
2019-03-17T21:40:33.296Z,4.00
2019-03-17T21:43:13.929Z,4.00
2019-03-17T21:45:54.957Z,4.10
2019-03-17T21:48:35.977Z,4.20
2019-03-17T21:51:16.666Z,4.20
2019-03-17T21:56:41.528Z,4.20
2019-03-17T21:59:22.416Z,4.30
2019-03-17T22:02:12.274Z,4.30
2019-03-17T22:04:45.873Z,4.30
2019-03-17T22:07:26.570Z,4.30
2019-03-17T22:10:07.474Z,4.30
2019-03-17T22:12:48.720Z,4.40
2019-03-17T22:15:30.093Z,4.40
2019-03-17T22:18:10.668Z,4.40
2019-03-17T22:20:51.325Z,4.30
2019-03-17T22:23:32.203Z,4.40
2019-03-17T22:26:13.661Z,4.40
2019-03-17T22:28:54.499Z,4.40
2019-03-17T22:31:35.062Z,4.30
2019-03-17T22:34:16.149Z,4.30
2019-03-17T22:36:56.745Z,4.20
2019-03-17T22:39:37.556Z,4.10
2019-03-17T22:42:18.233Z,4.10
2019-03-17T22:44:58.694Z,4.00
2019-03-17T22:47:39.734Z,4.10
2019-03-17T22:50:20.136Z,4.10
2019-03-17T22:53:00.804Z,4.10
2019-03-17T22:55:42.163Z,4.10
2019-03-17T22:58:23.384Z,4.10
2019-03-17T23:01:04.472Z,4.00
2019-03-17T23:03:45.410Z,4.10
2019-03-17T23:06:26.337Z,4.10
2019-03-17T23:09:07.543Z,4.10
2019-03-17T23:11:48.669Z,4.10
2019-03-17T23:14:36.598Z,4.00
2019-03-17T23:17:12.274Z,4.00
2019-03-17T23:19:52.962Z,4.10
2019-03-17T23:22:34.273Z,4.10
2019-03-17T23:25:15.569Z,4.10
2019-03-17T23:27:44.686Z,4.20
2019-03-17T23:30:32.858Z,4.20
2019-03-17T23:33:21.076Z,4.10
2019-03-17T23:36:01.477Z,4.20
2019-03-17T23:38:41.898Z,4.30
2019-03-17T23:41:22.750Z,4.30
2019-03-17T23:44:04.067Z,4.20
2019-03-17T23:46:44.916Z,4.20
2019-03-17T23:49:26.315Z,4.10
2019-03-17T23:52:07.629Z,4.00
2019-03-17T23:54:36.608Z,3.90
2019-03-17T23:57:25.033Z,3.80
